sensor_id;sensor_type;location;lat;lon;timestamp;P1;durP1;ratioP1;P2;durP2;ratioP2
45314;SDS011;31051;51.540;5.852;2023-06-26T00:09:40;12.3;;;11.2;;
45314;SDS011;31051;51.540;5.852;2023-06-26T00:22:28;12.9;;;11.8;;
45314;SDS011;31051;51.540;5.852;2023-06-26T00:35:17;12.7;;;11.6;;
45314;SDS011;31051;51.540;5.852;2023-06-26T00:48:06;12.5;;;11.4;;
45314;SDS011;31051;51.540;5.852;2023-06-26T01:01:04;11.4;;;10.4;;
45314;SDS011;31051;51.540;5.852;2023-06-26T01:13:53;10.1;;;9.2;;
45314;SDS011;31051;51.540;5.852;2023-06-26T01:26:42;9.7;;;8.8;;
45314;SDS011;31051;51.540;5.852;2023-06-26T01:39:41;9.1;;;8.3;;
45314;SDS011;31051;51.540;5.852;2023-06-26T01:52:29;8.4;;;7.7;;
45314;SDS011;31051;51.540;5.852;2023-06-26T02:05:18;7.3;;;6.5;;
45314;SDS011;31051;51.540;5.852;2023-06-26T02:18:17;6.6;;;5.9;;
45314;SDS011;31051;51.540;5.852;2023-06-26T02:31:06;7.0;;;5.6;;
45314;SDS011;31051;51.540;5.852;2023-06-26T02:44:04;7.1;;;5.8;;
45314;SDS011;31051;51.540;5.852;2023-06-26T02:56:54;6.6;;;5.8;;
45314;SDS011;31051;51.540;5.852;2023-06-26T03:09:53;6.6;;;5.9;;
45314;SDS011;31051;51.540;5.852;2023-06-26T03:22:53;7.0;;;5.8;;
45314;SDS011;31051;51.540;5.852;2023-06-26T03:35:51;6.7;;;5.1;;
45314;SDS011;31051;51.540;5.852;2023-06-26T03:48:40;7.0;;;4.6;;
45314;SDS011;31051;51.540;5.852;2023-06-26T04:01:28;7.4;;;4.6;;
45314;SDS011;31051;51.540;5.852;2023-06-26T04:14:17;8.9;;;4.8;;
45314;SDS011;31051;51.540;5.852;2023-06-26T04:27:16;9.2;;;5.0;;
45314;SDS011;31051;51.540;5.852;2023-06-26T04:40:04;9.6;;;5.3;;
45314;SDS011;31051;51.540;5.852;2023-06-26T04:52:53;10.0;;;5.3;;
45314;SDS011;31051;51.540;5.852;2023-06-26T05:05:53;12.3;;;5.8;;
45314;SDS011;31051;51.540;5.852;2023-06-26T05:18:51;12.0;;;6.1;;
45314;SDS011;31051;51.540;5.852;2023-06-26T05:31:41;12.7;;;6.2;;
45314;SDS011;31051;51.540;5.852;2023-06-26T05:44:39;14.0;;;6.0;;
45314;SDS011;31051;51.540;5.852;2023-06-26T05:57:28;14.3;;;6.0;;
45314;SDS011;31051;51.540;5.852;2023-06-26T06:10:27;13.5;;;6.0;;
45314;SDS011;31051;51.540;5.852;2023-06-26T06:23:15;13.2;;;5.8;;
45314;SDS011;31051;51.540;5.852;2023-06-26T06:36:04;12.6;;;5.4;;
45314;SDS011;31051;51.540;5.852;2023-06-26T06:48:52;13.0;;;5.6;;
45314;SDS011;31051;51.540;5.852;2023-06-26T07:01:40;11.9;;;4.8;;
45314;SDS011;31051;51.540;5.852;2023-06-26T07:14:29;10.4;;;4.4;;
45314;SDS011;31051;51.540;5.852;2023-06-26T07:27:17;10.2;;;4.1;;
45314;SDS011;31051;51.540;5.852;2023-06-26T07:40:05;8.6;;;4.1;;
45314;SDS011;31051;51.540;5.852;2023-06-26T07:52:54;9.1;;;4.0;;
45314;SDS011;31051;51.540;5.852;2023-06-26T08:05:42;9.5;;;4.0;;
45314;SDS011;31051;51.540;5.852;2023-06-26T08:18:31;8.3;;;4.0;;
45314;SDS011;31051;51.540;5.852;2023-06-26T08:31:29;8.3;;;4.4;;
45314;SDS011;31051;51.540;5.852;2023-06-26T08:44:18;6.7;;;4.5;;
45314;SDS011;31051;51.540;5.852;2023-06-26T08:57:06;6.5;;;4.1;;
45314;SDS011;31051;51.540;5.852;2023-06-26T09:09:54;3.6;;;1.8;;
45314;SDS011;31051;51.540;5.852;2023-06-26T09:22:43;3.7;;;1.8;;
45314;SDS011;31051;51.540;5.852;2023-06-26T09:35:31;3.9;;;1.7;;
45314;SDS011;31051;51.540;5.852;2023-06-26T09:48:19;4.0;;;1.5;;
45314;SDS011;31051;51.540;5.852;2023-06-26T10:01:08;3.9;;;1.7;;
45314;SDS011;31051;51.540;5.852;2023-06-26T10:13:57;4.6;;;1.5;;
45314;SDS011;31051;51.540;5.852;2023-06-26T10:26:56;4.1;;;1.5;;
45314;SDS011;31051;51.540;5.852;2023-06-26T10:39:44;5.0;;;1.6;;
45314;SDS011;31051;51.540;5.852;2023-06-26T10:52:32;3.9;;;1.4;;
45314;SDS011;31051;51.540;5.852;2023-06-26T11:05:21;3.0;;;1.4;;
45314;SDS011;31051;51.540;5.852;2023-06-26T11:18:09;3.6;;;1.3;;
45314;SDS011;31051;51.540;5.852;2023-06-26T11:30:57;3.5;;;1.4;;
45314;SDS011;31051;51.540;5.852;2023-06-26T11:43:47;4.6;;;1.5;;
45314;SDS011;31051;51.540;5.852;2023-06-26T11:56:46;4.0;;;1.3;;
45314;SDS011;31051;51.540;5.852;2023-06-26T12:09:46;3.3;;;1.5;;
45314;SDS011;31051;51.540;5.852;2023-06-26T12:22:45;5.5;;;1.4;;
45314;SDS011;31051;51.540;5.852;2023-06-26T12:35:45;3.1;;;1.4;;
45314;SDS011;31051;51.540;5.852;2023-06-26T12:48:43;5.1;;;1.6;;
45314;SDS011;31051;51.540;5.852;2023-06-26T13:01:32;4.2;;;1.5;;
45314;SDS011;31051;51.540;5.852;2023-06-26T13:14:21;2.9;;;1.3;;
45314;SDS011;31051;51.540;5.852;2023-06-26T13:27:20;6.6;;;1.4;;
45314;SDS011;31051;51.540;5.852;2023-06-26T13:40:19;3.2;;;1.1;;
45314;SDS011;31051;51.540;5.852;2023-06-26T13:53:07;2.7;;;1.0;;
45314;SDS011;31051;51.540;5.852;2023-06-26T14:05:56;2.7;;;1.2;;
45314;SDS011;31051;51.540;5.852;2023-06-26T14:18:44;2.3;;;1.2;;
45314;SDS011;31051;51.540;5.852;2023-06-26T14:31:32;3.3;;;1.2;;
45314;SDS011;31051;51.540;5.852;2023-06-26T14:44:21;3.6;;;1.2;;
45314;SDS011;31051;51.540;5.852;2023-06-26T14:57:09;1.9;;;1.0;;
45314;SDS011;31051;51.540;5.852;2023-06-26T15:09:58;2.3;;;1.0;;
45314;SDS011;31051;51.540;5.852;2023-06-26T15:22:46;3.3;;;1.1;;
45314;SDS011;31051;51.540;5.852;2023-06-26T15:35:34;2.6;;;1.2;;
45314;SDS011;31051;51.540;5.852;2023-06-26T15:48:23;2.7;;;1.2;;
45314;SDS011;31051;51.540;5.852;2023-06-26T16:01:12;2.9;;;1.2;;
45314;SDS011;31051;51.540;5.852;2023-06-26T16:14:11;2.0;;;1.1;;
45314;SDS011;31051;51.540;5.852;2023-06-26T16:26:59;3.4;;;1.2;;
45314;SDS011;31051;51.540;5.852;2023-06-26T16:39:47;2.2;;;1.0;;
45314;SDS011;31051;51.540;5.852;2023-06-26T16:52:36;2.8;;;1.2;;
45314;SDS011;31051;51.540;5.852;2023-06-26T17:05:25;3.7;;;1.6;;
45314;SDS011;31051;51.540;5.852;2023-06-26T17:18:24;3.7;;;1.3;;
45314;SDS011;31051;51.540;5.852;2023-06-26T17:31:12;4.3;;;1.6;;
45314;SDS011;31051;51.540;5.852;2023-06-26T17:44:00;3.9;;;1.4;;
45314;SDS011;31051;51.540;5.852;2023-06-26T17:56:49;3.1;;;1.4;;
45314;SDS011;31051;51.540;5.852;2023-06-26T18:09:38;3.2;;;1.4;;
45314;SDS011;31051;51.540;5.852;2023-06-26T18:22:36;2.6;;;1.4;;
45314;SDS011;31051;51.540;5.852;2023-06-26T18:35:26;2.7;;;1.2;;
45314;SDS011;31051;51.540;5.852;2023-06-26T18:48:25;2.9;;;1.4;;
45314;SDS011;31051;51.540;5.852;2023-06-26T19:01:24;2.8;;;1.3;;
45314;SDS011;31051;51.540;5.852;2023-06-26T19:14:12;3.1;;;1.4;;
45314;SDS011;31051;51.540;5.852;2023-06-26T19:27:01;4.0;;;1.8;;
45314;SDS011;31051;51.540;5.852;2023-06-26T19:40:00;3.9;;;1.9;;
45314;SDS011;31051;51.540;5.852;2023-06-26T19:52:49;3.1;;;1.8;;
45314;SDS011;31051;51.540;5.852;2023-06-26T20:05:49;4.0;;;1.8;;
45314;SDS011;31051;51.540;5.852;2023-06-26T20:18:48;3.6;;;1.6;;
45314;SDS011;31051;51.540;5.852;2023-06-26T20:31:47;3.2;;;1.6;;
45314;SDS011;31051;51.540;5.852;2023-06-26T20:44:47;3.2;;;1.6;;
45314;SDS011;31051;51.540;5.852;2023-06-26T20:57:45;4.3;;;1.7;;
45314;SDS011;31051;51.540;5.852;2023-06-26T21:10:34;3.4;;;2.1;;
45314;SDS011;31051;51.540;5.852;2023-06-26T21:23:33;3.3;;;2.1;;
45314;SDS011;31051;51.540;5.852;2023-06-26T21:36:22;3.5;;;2.1;;
45314;SDS011;31051;51.540;5.852;2023-06-26T21:49:22;3.8;;;2.4;;
45314;SDS011;31051;51.540;5.852;2023-06-26T22:02:21;4.8;;;2.6;;
45314;SDS011;31051;51.540;5.852;2023-06-26T22:15:20;4.6;;;2.8;;
45314;SDS011;31051;51.540;5.852;2023-06-26T22:28:20;4.7;;;2.5;;
45314;SDS011;31051;51.540;5.852;2023-06-26T22:41:19;3.4;;;2.2;;
45314;SDS011;31051;51.540;5.852;2023-06-26T22:54:18;5.4;;;3.0;;
45314;SDS011;31051;51.540;5.852;2023-06-26T23:07:18;5.0;;;2.6;;
45314;SDS011;31051;51.540;5.852;2023-06-26T23:20:17;4.6;;;2.5;;
45314;SDS011;31051;51.540;5.852;2023-06-26T23:33:17;4.4;;;2.6;;
45314;SDS011;31051;51.540;5.852;2023-06-26T23:46:16;4.6;;;2.9;;
45314;SDS011;31051;51.540;5.852;2023-06-26T23:59:15;4.9;;;3.3;;
